AIRPORT MAP

 RUNWAY INFORMATION

Runway 08 Runway length 10072 ft Runway width 148 ft
Runway elevation 129 ft Runway displaced threshold 820 ft Runway heading 90
Runway 26 Runway length 10072 ft Runway width 148 ft
Runway elevation 131 ft Runway displaced threshold 0 ft Runway heading 270

 AIRPORT FREQUENCIES

Type APP Name APP Frequency 127.9 MHZ
Type ATIS Name ATIS Frequency 124.875 MHZ
Type TWR Name TWR Frequency 120.6 MHZ

 AIRPORT NEAR NAVIGATION AIDS

Type NDB Name Tallinn Frequency 329 KHZ
Type NDB Name Tallinn Frequency 386 KHZ
Type VOR-DME Name Tallinn Frequency 112200 KHZ

 METAR AND TAF INFORMATION

METAR FOR EETN
ADDS - METARS form results

(2202 UTC 07 August 2020)
Data provider http://aviationweather.gov/metar/data/
 
METAR text: EETN 072150Z 00000KT CAVOK 16/15 Q1026 NOSIG
Conditions at: EETN (TALLINN , EE) observed 2150 UTC 07 August 2020
Temperature: 16.0°C (61°F)
Dewpoint: 15.0°C (59°F) [RH = 94%]
Pressure (altimeter): 30.30 inches Hg (1026.0 mb)
Winds: calm
Visibility: 6 or more miles (10+ km)
Ceiling: ceiling and visibility are OK
Clouds: unknown
Weather: no significant weather observed at this time

METAR text: EETN 072120Z 00000KT CAVOK 16/15 Q1026 NOSIG
Conditions at: EETN (TALLINN , EE) observed 2120 UTC 07 August 2020
Temperature: 16.0°C (61°F)
Dewpoint: 15.0°C (59°F) [RH = 94%]
Pressure (altimeter): 30.30 inches Hg (1026.0 mb)
Winds: calm
Visibility: 6 or more miles (10+ km)
Ceiling: ceiling and visibility are OK
Clouds: unknown
Weather: no significant weather observed at this time

Forecast for: EETN (TALLINN , EE)
Text: TAF EETN 071700Z 0718/0818 VRB02KT CAVOK
Forecast period: 1800 UTC 07 August 2020 to 1800 UTC 08 August 2020
Forecast type: FROM: standard forecast or significant change
Winds: variable direction winds at 2 MPH (2 knots; 1.0 m/s)
Visibility: 6 or more miles (10+ km)
Ceiling: unknown
Clouds: missing
Weather: NSW  (no significant weather)
Text: PROB40
Forecast period: 2100 to 2300 UTC 07 August 2020
Forecast type: TEMPORARY: The following changes expected for less than half the time period
Visibility: 0.62 miles (1.00 km)
Ceiling: 300 feet AGL
Clouds: broken clouds at 300 feet AGL
Weather: BR  (mist)
Text: TEMPO 0721/0723 1000 BR BKN003
Forecast period: 2300 UTC 07 August 2020 to 0500 UTC 08 August 2020
Forecast type: TEMPORARY: The following changes expected for less than half the time period
Visibility: 0.25 miles (0.40 km)
Ceiling: 200 feet AGL
Clouds: broken clouds at 200 feet AGL
Weather: BCFG  (patches of fog)
Text: TEMPO 0723/0805 0400 BCFG BKN002
Forecast period: 1000 to 1700 UTC 08 August 2020
Forecast type: TEMPORARY: The following changes expected for less than half the time period
Winds: from the NW (320 degrees) at 12 MPH (10 knots; 5.1 m/s)
Visibility: missing
Ceiling: unknown
Clouds: missing
Weather: no significant weather forecast for this period